CheckWX is a tool to help pilots better visualize weather data.  It is not intended as a substitute for an official pre-flight weather briefing.

07:57:32 UTC

LGAV TAF
Eleftherios Venizelos International Airport
Athens, Greece
TAF LGAV 210500Z 2106/2206 01016KT 9999 FEW018 BECMG 2204/2206 01016G28KT

Oct-21@
06:00 UTC

Oct-21 @ 06:00 UTC

Oct-22@
04:00 UTC

Oct-22 @ 04:00 UTC

TAF LGAV 210500Z 2106/2206 01016KT 9999 FEW018
Wind
  • 010° at 16 KTS
Cloud Levels
  • Few at 1,800' AGL

Oct-22@
04:00 UTC

Oct-22 @ 04:00 UTC

Oct-22@
06:00 UTC

Oct-22 @ 06:00 UTC

BECMG 2204/2206 01016G28KT

Becoming

Becoming Conditions expected by Tue, Oct 22, 2019 @ 06:00 UTC

Wind
  • 010° at 16 KTS
  • {Gusting to 28 KTS
Cloud Levels
  • Few at 1,800' AGL